createdAt,value
2023-04-07T00:00:16.282Z,4.90
2023-04-07T00:02:45.072Z,4.70
2023-04-07T00:05:13.498Z,4.60
2023-04-07T00:07:52.357Z,4.60
2023-04-07T00:10:25.687Z,4.70
2023-04-07T00:12:54.679Z,4.80
2023-04-07T00:15:23.169Z,4.90
2023-04-07T00:17:51.621Z,4.90
2023-04-07T00:20:19.696Z,4.80
2023-04-07T00:22:48.913Z,4.70
2023-04-07T00:25:17.406Z,4.70
2023-04-07T00:27:45.474Z,4.70
2023-04-07T00:30:15.740Z,4.70
2023-04-07T00:32:43.833Z,4.60
2023-04-07T00:35:14.108Z,4.50
2023-04-07T00:37:42.694Z,4.30
2023-04-07T00:40:11.164Z,4.10
2023-04-07T00:42:40.422Z,4.10
2023-04-07T00:45:10.299Z,4.10
2023-04-07T00:47:38.675Z,4.10
2023-04-07T00:50:08.244Z,4.10
2023-04-07T00:52:36.817Z,4.20
2023-04-07T00:55:06.269Z,4.30
2023-04-07T00:57:35.095Z,4.30
2023-04-07T01:00:04.307Z,4.30
2023-04-07T01:03:09.607Z,4.30
2023-04-07T01:06:01.514Z,4.20
2023-04-07T01:08:41.463Z,4.30
2023-04-07T01:11:30.859Z,4.30
2023-04-07T01:14:01.192Z,4.40
2023-04-07T01:16:55.165Z,4.30
2023-04-07T01:19:45.164Z,4.30
2023-04-07T01:22:18.086Z,4.30
2023-04-07T01:25:15.132Z,4.30
2023-04-07T01:28:02.746Z,4.20
2023-04-07T01:30:35.622Z,4.10
2023-04-07T01:33:06.557Z,4.00
2023-04-07T01:35:37.293Z,3.90
2023-04-07T01:38:06.703Z,3.80
2023-04-07T01:40:36.949Z,3.70
2023-04-07T01:43:06.704Z,3.40
2023-04-07T01:45:37.415Z,3.30
2023-04-07T01:48:07.854Z,3.20
2023-04-07T01:50:36.771Z,3.10
2023-04-07T01:53:06.285Z,3.10
2023-04-07T01:55:35.647Z,3.10
2023-04-07T01:58:08.182Z,3.00
2023-04-07T02:00:39.439Z,3.00
2023-04-07T02:03:22.325Z,3.00
2023-04-07T02:05:56.168Z,3.30
2023-04-07T02:08:31.162Z,3.40
2023-04-07T02:11:04.086Z,3.40
2023-04-07T02:13:38.933Z,3.50
2023-04-07T02:16:34.294Z,3.50
2023-04-07T02:19:03.767Z,3.60
2023-04-07T02:21:34.951Z,3.50
2023-04-07T02:24:06.691Z,3.40
2023-04-07T02:26:36.322Z,3.20
2023-04-07T02:29:05.296Z,3.10
2023-04-07T02:31:33.737Z,3.10
2023-04-07T02:34:02.489Z,3.10
2023-04-07T02:36:31.406Z,3.10
2023-04-07T02:39:00.497Z,3.10
2023-04-07T02:41:28.808Z,3.10
2023-04-07T02:43:57.441Z,3.10
2023-04-07T02:46:26.120Z,3.10
2023-04-07T02:48:54.544Z,3.10
2023-04-07T02:51:23.205Z,3.10
2023-04-07T02:53:51.661Z,3.00
2023-04-07T02:56:21.266Z,3.10
2023-04-07T02:58:49.281Z,3.10
2023-04-07T03:01:18.424Z,3.00
2023-04-07T03:03:48.092Z,2.90
2023-04-07T03:06:27.336Z,3.00
2023-04-07T03:09:10.155Z,3.10
2023-04-07T03:11:38.720Z,3.10
2023-04-07T03:14:07.304Z,3.00
2023-04-07T03:16:43.192Z,3.10
2023-04-07T03:19:14.209Z,3.10
2023-04-07T03:21:45.696Z,3.10
2023-04-07T03:24:14.051Z,3.10
2023-04-07T03:26:42.205Z,3.10
2023-04-07T03:29:20.104Z,3.10
2023-04-07T03:31:48.194Z,3.00
2023-04-07T03:34:19.589Z,3.00
2023-04-07T03:36:48.427Z,3.00
2023-04-07T03:39:17.075Z,3.00
2023-04-07T03:41:46.144Z,2.80
2023-04-07T03:44:14.898Z,2.70
2023-04-07T03:46:45.525Z,2.70
2023-04-07T03:49:14.839Z,2.60
2023-04-07T03:51:43.864Z,2.50
2023-04-07T03:54:16.603Z,2.40
2023-04-07T03:56:46.433Z,2.30
2023-04-07T03:59:17.224Z,2.40
2023-04-07T04:02:02.203Z,2.40
2023-04-07T04:04:30.684Z,2.30
2023-04-07T04:06:59.729Z,2.20
2023-04-07T04:09:54.090Z,2.10
2023-04-07T04:12:23.043Z,2.00
2023-04-07T04:15:02.788Z,2.10
2023-04-07T04:17:32.195Z,2.20
2023-04-07T04:20:01.425Z,2.30
2023-04-07T04:22:45.225Z,2.30
2023-04-07T04:25:13.964Z,2.20
2023-04-07T04:27:46.622Z,2.20
2023-04-07T04:30:22.212Z,2.10
2023-04-07T04:32:57.880Z,2.10
2023-04-07T04:35:35.008Z,2.10
2023-04-07T04:38:12.535Z,2.00
2023-04-07T04:40:45.162Z,1.80
2023-04-07T04:43:15.537Z,1.80
2023-04-07T04:45:44.487Z,1.80
2023-04-07T04:48:15.886Z,1.80
2023-04-07T04:50:45.041Z,1.80
2023-04-07T04:53:14.730Z,1.70
2023-04-07T04:55:59.276Z,1.80
2023-04-07T04:58:42.331Z,1.90
2023-04-07T05:01:15.820Z,2.00
2023-04-07T05:03:53.483Z,2.20
2023-04-07T05:06:25.549Z,2.40
2023-04-07T05:08:54.257Z,2.40
2023-04-07T05:11:27.021Z,2.60
2023-04-07T05:13:57.479Z,2.80
2023-04-07T05:16:26.569Z,3.00
2023-04-07T05:18:56.510Z,3.20
2023-04-07T05:21:27.354Z,3.40
2023-04-07T05:23:59.866Z,3.40
2023-04-07T05:26:28.880Z,3.50
2023-04-07T05:28:57.112Z,3.70
2023-04-07T05:31:27.765Z,3.80
2023-04-07T05:34:00.081Z,3.90
2023-04-07T05:36:35.383Z,3.80
2023-04-07T05:39:04.151Z,3.50
2023-04-07T05:41:33.985Z,3.30
2023-04-07T05:44:04.024Z,3.20
2023-04-07T05:46:35.923Z,3.20
2023-04-07T05:49:19.024Z,3.30
2023-04-07T05:51:52.476Z,3.70
2023-04-07T05:54:20.959Z,3.80
2023-04-07T05:56:50.812Z,4.20
2023-04-07T05:59:19.364Z,4.70
2023-04-07T06:01:47.600Z,4.60
2023-04-07T06:04:16.270Z,5.00
2023-04-07T06:06:47.499Z,5.00
2023-04-07T06:09:16.423Z,4.40
2023-04-07T06:11:45.185Z,4.00
2023-04-07T06:14:14.603Z,4.50
2023-04-07T06:16:43.290Z,4.40
2023-04-07T06:19:11.702Z,4.40
2023-04-07T06:21:40.529Z,4.30
2023-04-07T06:24:08.650Z,4.90
2023-04-07T06:26:37.167Z,5.30
2023-04-07T06:29:06.152Z,5.60
2023-04-07T06:31:34.513Z,6.20
2023-04-07T06:34:03.713Z,6.90
2023-04-07T06:36:33.922Z,7.30
2023-04-07T06:39:02.131Z,7.50
2023-04-07T06:41:32.092Z,7.50
2023-04-07T06:44:00.428Z,7.60
2023-04-07T06:46:28.707Z,7.70
2023-04-07T06:48:57.372Z,7.50
2023-04-07T06:51:26.538Z,7.00
2023-04-07T06:53:54.643Z,7.00
2023-04-07T06:56:24.119Z,6.70
2023-04-07T06:58:52.817Z,6.80
2023-04-07T07:01:20.940Z,7.10
2023-04-07T07:03:49.275Z,7.20
2023-04-07T07:06:17.687Z,7.60
2023-04-07T07:08:46.396Z,7.60
2023-04-07T07:11:15.519Z,8.20
2023-04-07T07:13:45.166Z,8.80
2023-04-07T07:16:13.343Z,9.00
2023-04-07T07:18:41.486Z,9.00
2023-04-07T07:21:10.402Z,9.00
2023-04-07T07:23:38.866Z,9.30
2023-04-07T07:26:07.799Z,9.70
2023-04-07T07:28:36.021Z,10.10
2023-04-07T07:31:15.252Z,10.40
2023-04-07T07:33:46.140Z,10.40
2023-04-07T07:36:15.631Z,10.90
2023-04-07T07:38:44.581Z,11.70
2023-04-07T07:41:12.935Z,12.30
2023-04-07T07:43:41.230Z,12.90
2023-04-07T07:46:10.669Z,12.40
2023-04-07T07:48:39.358Z,11.40
2023-04-07T07:51:08.066Z,10.90
2023-04-07T07:53:36.455Z,11.80
2023-04-07T07:56:04.556Z,12.20
2023-04-07T07:58:33.500Z,12.20
2023-04-07T08:01:02.461Z,12.90
2023-04-07T08:03:31.487Z,13.40
2023-04-07T08:06:01.233Z,13.20
2023-04-07T08:08:29.301Z,13.80
2023-04-07T08:10:57.727Z,13.90
2023-04-07T08:13:25.741Z,14.50
2023-04-07T08:15:54.774Z,13.70
2023-04-07T08:18:23.389Z,13.70
2023-04-07T08:20:51.819Z,13.70
2023-04-07T08:23:20.346Z,14.10
2023-04-07T08:25:49.355Z,13.90
2023-04-07T08:28:18.019Z,14.50
2023-04-07T08:30:46.032Z,14.40
2023-04-07T08:33:14.113Z,14.60
2023-04-07T08:35:42.688Z,14.90
2023-04-07T08:38:11.286Z,14.40
2023-04-07T08:40:40.376Z,14.50
2023-04-07T08:43:10.959Z,14.10
2023-04-07T08:45:42.365Z,14.80
2023-04-07T08:48:18.148Z,15.40
2023-04-07T08:50:46.709Z,15.70
2023-04-07T08:53:21.254Z,15.70
2023-04-07T08:55:50.116Z,14.60
2023-04-07T08:58:20.479Z,15.30
2023-04-07T09:00:49.433Z,15.80
2023-04-07T09:03:18.273Z,16.10
2023-04-07T09:05:46.657Z,15.90
2023-04-07T09:08:15.390Z,14.90
2023-04-07T09:10:43.517Z,14.70
2023-04-07T09:13:16.027Z,15.60
2023-04-07T09:15:44.456Z,15.30
2023-04-07T09:18:14.883Z,15.50
2023-04-07T09:21:03.959Z,16.00
2023-04-07T09:23:34.811Z,16.20
2023-04-07T09:26:21.506Z,15.90
2023-04-07T09:28:53.713Z,15.10
2023-04-07T09:31:45.229Z,15.90
2023-04-07T09:34:42.880Z,16.00
2023-04-07T09:37:23.325Z,16.00
2023-04-07T09:39:54.225Z,15.80
2023-04-07T09:42:22.562Z,15.80
2023-04-07T09:44:52.683Z,15.00
2023-04-07T09:47:29.442Z,15.30
2023-04-07T09:49:59.792Z,15.30
2023-04-07T09:52:52.622Z,15.30
2023-04-07T09:55:24.689Z,15.60
2023-04-07T09:57:55.537Z,15.80
2023-04-07T10:00:24.936Z,15.60
2023-04-07T10:02:53.705Z,15.40
2023-04-07T10:05:22.933Z,15.40
2023-04-07T10:07:51.673Z,15.50
2023-04-07T10:10:20.455Z,14.70
2023-04-07T10:12:50.785Z,14.40
2023-04-07T10:15:19.718Z,14.60
2023-04-07T10:17:49.609Z,14.80
2023-04-07T10:20:21.527Z,14.80
2023-04-07T10:22:52.728Z,15.00
2023-04-07T10:25:25.027Z,15.30
2023-04-07T10:28:03.341Z,15.50
2023-04-07T10:30:33.680Z,15.60
2023-04-07T10:33:02.708Z,15.30
2023-04-07T10:36:05.304Z,15.30
2023-04-07T10:38:34.550Z,15.80
2023-04-07T10:41:38.348Z,15.80
2023-04-07T10:44:08.258Z,15.80
2023-04-07T10:46:45.681Z,15.40
2023-04-07T10:49:18.755Z,15.60
2023-04-07T10:52:13.374Z,15.30
2023-04-07T10:54:41.771Z,15.30
2023-04-07T10:57:17.212Z,15.50
2023-04-07T11:00:12.823Z,15.60
2023-04-07T11:02:41.630Z,15.80
2023-04-07T11:05:21.850Z,15.90
2023-04-07T11:07:53.643Z,15.70
2023-04-07T11:10:23.167Z,15.40
2023-04-07T11:13:08.043Z,15.10
2023-04-07T11:15:40.475Z,15.20
2023-04-07T11:18:20.202Z,15.30
2023-04-07T11:20:53.806Z,15.70
2023-04-07T11:23:25.526Z,15.50
2023-04-07T11:26:03.528Z,15.10
2023-04-07T11:28:33.128Z,14.90
2023-04-07T11:31:01.266Z,14.90
2023-04-07T11:33:32.366Z,15.20
2023-04-07T11:36:03.429Z,15.20
2023-04-07T11:38:38.001Z,15.10
2023-04-07T11:41:16.340Z,15.50
2023-04-07T11:43:44.759Z,15.90
2023-04-07T11:46:15.786Z,16.10
2023-04-07T11:48:45.783Z,16.30
2023-04-07T11:51:19.887Z,16.00
2023-04-07T11:53:54.860Z,16.00
2023-04-07T11:56:23.772Z,16.30
2023-04-07T11:58:56.243Z,16.30
2023-04-07T12:01:39.126Z,16.40
2023-04-07T12:04:12.516Z,16.10
2023-04-07T12:06:42.753Z,15.70
2023-04-07T12:09:28.021Z,16.10
2023-04-07T12:11:57.896Z,16.30
2023-04-07T12:14:27.998Z,16.10
2023-04-07T12:16:58.403Z,16.00
2023-04-07T12:19:30.870Z,15.70
2023-04-07T12:21:59.308Z,16.00
2023-04-07T12:24:28.759Z,16.30
2023-04-07T12:26:58.334Z,16.30
2023-04-07T12:29:26.274Z,16.10
2023-04-07T12:31:54.968Z,16.40
2023-04-07T12:34:23.680Z,16.50
2023-04-07T12:36:51.764Z,16.30
2023-04-07T12:39:20.389Z,16.30
2023-04-07T12:41:49.595Z,16.50
2023-04-07T12:44:17.656Z,16.70
2023-04-07T12:46:47.042Z,16.50
2023-04-07T12:49:15.102Z,16.10
2023-04-07T12:51:43.141Z,16.10
2023-04-07T12:54:11.595Z,16.10
2023-04-07T12:56:41.935Z,16.20
2023-04-07T12:59:10.049Z,16.40
2023-04-07T13:01:39.546Z,15.90
2023-04-07T13:04:08.519Z,15.80
2023-04-07T13:06:36.899Z,15.70
2023-04-07T13:09:05.389Z,15.80
2023-04-07T13:11:33.498Z,16.10
2023-04-07T13:14:02.110Z,15.90
2023-04-07T13:16:30.986Z,15.80
2023-04-07T13:18:59.476Z,16.00
2023-04-07T13:21:45.464Z,16.40
2023-04-07T13:24:16.638Z,16.60
2023-04-07T13:26:45.580Z,16.50
2023-04-07T13:29:14.483Z,16.40
2023-04-07T13:31:43.788Z,15.90
2023-04-07T13:34:12.678Z,16.10
2023-04-07T13:36:42.282Z,16.30
2023-04-07T13:39:10.865Z,16.20
2023-04-07T13:41:39.417Z,16.20
2023-04-07T13:44:07.849Z,16.10
2023-04-07T13:46:35.837Z,16.30
2023-04-07T13:49:04.937Z,15.90
2023-04-07T13:51:33.055Z,15.70
2023-04-07T13:54:01.131Z,16.00
2023-04-07T13:56:29.253Z,16.30
2023-04-07T13:58:57.217Z,16.20
2023-04-07T14:01:25.547Z,15.90
2023-04-07T14:03:53.957Z,16.10
2023-04-07T14:06:23.143Z,16.10
2023-04-07T14:08:51.655Z,15.90
2023-04-07T14:11:20.005Z,15.70
2023-04-07T14:13:49.819Z,15.70
2023-04-07T14:16:18.973Z,15.60
2023-04-07T14:18:49.536Z,15.60
2023-04-07T14:21:17.795Z,15.40
2023-04-07T14:23:45.850Z,15.30
2023-04-07T14:26:14.381Z,15.10
2023-04-07T14:28:43.286Z,15.00
2023-04-07T14:31:16.249Z,14.90
2023-04-07T14:33:44.708Z,14.90
2023-04-07T14:36:16.905Z,15.00
2023-04-07T14:38:45.482Z,14.90
2023-04-07T14:41:14.450Z,15.00
2023-04-07T14:43:43.710Z,15.00
2023-04-07T14:46:12.973Z,15.00
2023-04-07T14:48:41.247Z,14.90
2023-04-07T14:51:13.584Z,14.90
2023-04-07T14:53:43.824Z,14.80
2023-04-07T14:56:13.678Z,14.70
2023-04-07T14:58:41.756Z,14.60
2023-04-07T15:01:10.695Z,14.50
2023-04-07T15:03:39.234Z,14.50
2023-04-07T15:06:09.063Z,14.50
2023-04-07T15:08:37.624Z,14.50
2023-04-07T15:11:09.944Z,14.50
2023-04-07T15:13:38.438Z,14.50
2023-04-07T15:16:14.028Z,14.50
2023-04-07T15:18:45.031Z,14.50
2023-04-07T15:21:15.390Z,14.50
2023-04-07T15:23:43.554Z,14.50
2023-04-07T15:26:12.494Z,14.50
2023-04-07T15:28:40.897Z,14.50
2023-04-07T15:31:10.086Z,14.40
2023-04-07T15:33:40.114Z,14.40
2023-04-07T15:36:09.533Z,14.40
2023-04-07T15:38:39.565Z,14.40
2023-04-07T15:41:08.438Z,14.50
2023-04-07T15:43:37.641Z,14.50
2023-04-07T15:46:06.596Z,14.40
2023-04-07T15:48:34.766Z,14.30
2023-04-07T15:51:03.794Z,14.30
2023-04-07T15:53:32.850Z,14.20
2023-04-07T15:56:01.540Z,14.30
2023-04-07T15:58:31.471Z,14.20
2023-04-07T16:01:00.791Z,14.20
2023-04-07T16:03:30.022Z,14.10
2023-04-07T16:05:58.765Z,14.10
2023-04-07T16:08:26.904Z,14.20
2023-04-07T16:10:55.689Z,14.20
2023-04-07T16:13:23.827Z,14.20
2023-04-07T16:16:00.223Z,14.30
2023-04-07T16:18:30.255Z,14.30
2023-04-07T16:20:58.818Z,14.30
2023-04-07T16:23:27.106Z,14.30
2023-04-07T16:25:55.700Z,14.20
2023-04-07T16:28:23.780Z,14.10
2023-04-07T16:30:52.878Z,14.10
2023-04-07T16:33:21.012Z,14.00
2023-04-07T16:35:51.248Z,14.00
2023-04-07T16:38:19.920Z,13.90
2023-04-07T16:41:00.601Z,13.90
2023-04-07T16:43:32.269Z,13.80
2023-04-07T16:46:00.683Z,13.80
2023-04-07T16:48:29.273Z,13.80
2023-04-07T16:50:57.290Z,13.70
2023-04-07T16:53:26.088Z,13.60
2023-04-07T16:55:54.713Z,13.50
2023-04-07T16:58:22.797Z,13.50
2023-04-07T17:00:50.899Z,13.40
2023-04-07T17:03:19.637Z,13.30
2023-04-07T17:05:49.544Z,13.30
2023-04-07T17:08:17.755Z,13.20
2023-04-07T17:10:46.604Z,13.10
2023-04-07T17:13:14.517Z,13.00
2023-04-07T17:15:42.581Z,13.00
2023-04-07T17:18:11.192Z,12.90
2023-04-07T17:20:40.571Z,12.80
2023-04-07T17:23:10.468Z,12.80
2023-04-07T17:25:39.314Z,12.80
2023-04-07T17:28:07.798Z,12.70
2023-04-07T17:30:37.703Z,12.70
2023-04-07T17:33:08.320Z,12.60
2023-04-07T17:35:36.936Z,12.50
2023-04-07T17:38:06.851Z,12.40
2023-04-07T17:40:35.258Z,12.30
2023-04-07T17:43:03.731Z,12.30
2023-04-07T17:45:32.058Z,12.20
2023-04-07T17:48:01.826Z,12.20
2023-04-07T17:50:32.368Z,12.20
2023-04-07T17:53:01.154Z,12.10
2023-04-07T17:55:29.312Z,12.10
2023-04-07T17:58:01.001Z,12.10
2023-04-07T18:00:30.680Z,12.00
2023-04-07T18:03:00.145Z,12.00
2023-04-07T18:05:31.295Z,11.90
2023-04-07T18:07:59.847Z,11.90
2023-04-07T18:10:29.867Z,11.90
2023-04-07T18:12:58.626Z,11.80
2023-04-07T18:15:27.965Z,11.80
2023-04-07T18:17:56.525Z,11.70
2023-04-07T18:20:24.800Z,11.70
2023-04-07T18:22:55.592Z,11.70
2023-04-07T18:25:24.322Z,11.70
2023-04-07T18:27:53.503Z,11.60
2023-04-07T18:30:21.930Z,11.60
2023-04-07T18:32:50.086Z,11.50
2023-04-07T18:35:18.644Z,11.50
2023-04-07T18:37:47.377Z,11.50
2023-04-07T18:40:16.788Z,11.60
2023-04-07T18:42:44.964Z,11.50
2023-04-07T18:45:13.320Z,11.50
2023-04-07T18:47:41.636Z,11.40
2023-04-07T18:50:10.791Z,11.30
2023-04-07T18:52:39.652Z,11.30
2023-04-07T18:55:09.244Z,11.20
2023-04-07T18:57:39.653Z,11.20
2023-04-07T19:00:08.830Z,11.20
2023-04-07T19:02:44.385Z,11.20
2023-04-07T19:05:12.982Z,11.20
2023-04-07T19:07:42.044Z,11.20
2023-04-07T19:10:10.193Z,11.20
2023-04-07T19:12:38.681Z,11.20
2023-04-07T19:15:07.584Z,11.20
2023-04-07T19:17:37.427Z,11.20
2023-04-07T19:20:07.115Z,11.10
2023-04-07T19:22:36.401Z,11.10
2023-04-07T19:25:04.852Z,11.10
2023-04-07T19:27:33.475Z,11.10
2023-04-07T19:30:02.161Z,11.00
2023-04-07T19:32:31.611Z,11.00
2023-04-07T19:34:59.927Z,11.00
2023-04-07T19:37:29.272Z,10.90
2023-04-07T19:40:02.861Z,10.80
2023-04-07T19:42:32.477Z,10.90
2023-04-07T19:45:02.422Z,10.80
2023-04-07T19:47:31.766Z,10.70
2023-04-07T19:50:00.488Z,10.70
2023-04-07T19:52:32.161Z,10.60
2023-04-07T19:55:01.684Z,10.50
2023-04-07T19:57:31.605Z,10.50
2023-04-07T20:00:00.092Z,10.40
2023-04-07T20:02:28.602Z,10.30
2023-04-07T20:04:58.477Z,10.20
2023-04-07T20:07:27.347Z,10.20
2023-04-07T20:09:57.395Z,10.00
2023-04-07T20:12:25.715Z,9.90
2023-04-07T20:14:54.200Z,9.80
2023-04-07T20:17:22.624Z,9.60
2023-04-07T20:19:55.769Z,9.60
2023-04-07T20:22:24.301Z,9.50
2023-04-07T20:24:52.798Z,9.50
2023-04-07T20:27:21.551Z,9.50
2023-04-07T20:29:51.098Z,9.50
2023-04-07T20:32:19.727Z,9.50
2023-04-07T20:34:48.484Z,9.50
2023-04-07T20:37:17.327Z,9.40
2023-04-07T20:39:46.052Z,9.30
2023-04-07T20:42:14.978Z,9.20
2023-04-07T20:44:43.593Z,9.20
2023-04-07T20:47:12.801Z,9.10
2023-04-07T20:49:43.651Z,8.90
2023-04-07T20:52:11.788Z,8.80
2023-04-07T20:54:42.748Z,8.80
2023-04-07T20:57:11.721Z,8.80
2023-04-07T20:59:40.062Z,8.80
2023-04-07T21:02:09.059Z,8.70
2023-04-07T21:04:37.811Z,8.50
2023-04-07T21:07:06.477Z,8.30
2023-04-07T21:09:34.445Z,8.10
2023-04-07T21:12:03.920Z,7.90
2023-04-07T21:14:32.418Z,7.90
2023-04-07T21:17:00.695Z,7.90
2023-04-07T21:19:28.866Z,7.90
2023-04-07T21:21:56.885Z,7.90
2023-04-07T21:24:26.017Z,7.80
2023-04-07T21:26:55.152Z,7.80
2023-04-07T21:29:23.303Z,7.80
2023-04-07T21:32:16.288Z,7.70
2023-04-07T21:34:45.200Z,7.70
2023-04-07T21:37:13.817Z,7.60
2023-04-07T21:39:42.434Z,7.70
2023-04-07T21:42:10.377Z,7.80
2023-04-07T21:44:39.123Z,7.80
2023-04-07T21:47:08.129Z,7.80
2023-04-07T21:49:38.635Z,7.70
2023-04-07T21:52:07.871Z,7.70
2023-04-07T21:54:36.666Z,7.70
2023-04-07T21:57:04.861Z,7.70
2023-04-07T21:59:35.526Z,7.80
2023-04-07T22:02:04.599Z,7.90
2023-04-07T22:04:33.352Z,7.80
2023-04-07T22:07:02.043Z,7.70
2023-04-07T22:09:30.013Z,7.60
2023-04-07T22:11:58.566Z,7.40
2023-04-07T22:14:26.645Z,7.20
2023-04-07T22:16:55.830Z,7.20
2023-04-07T22:19:26.459Z,7.10
2023-04-07T22:21:54.821Z,7.10
2023-04-07T22:24:23.090Z,7.10
2023-04-07T22:26:53.984Z,7.20
2023-04-07T22:29:22.968Z,7.20
2023-04-07T22:31:51.084Z,7.20
2023-04-07T22:34:19.833Z,7.20
2023-04-07T22:36:48.036Z,7.10
2023-04-07T22:39:16.500Z,6.90
2023-04-07T22:41:44.680Z,6.80
2023-04-07T22:44:12.637Z,6.70
2023-04-07T22:46:40.619Z,6.70
2023-04-07T22:49:09.143Z,6.70
2023-04-07T22:51:38.038Z,6.70
2023-04-07T22:54:06.836Z,6.70
2023-04-07T22:56:35.470Z,6.80
2023-04-07T22:59:05.985Z,6.80
2023-04-07T23:01:34.340Z,6.80
2023-04-07T23:04:03.221Z,6.80
2023-04-07T23:06:32.259Z,6.70
2023-04-07T23:09:00.571Z,6.60
2023-04-07T23:11:28.523Z,6.70
2023-04-07T23:13:57.187Z,6.80
2023-04-07T23:16:26.520Z,6.90
2023-04-07T23:18:54.980Z,6.90
2023-04-07T23:21:23.608Z,6.80
2023-04-07T23:23:51.829Z,6.70
2023-04-07T23:26:19.971Z,6.70
2023-04-07T23:28:48.794Z,6.60
2023-04-07T23:31:17.693Z,6.60
2023-04-07T23:33:48.061Z,6.60
2023-04-07T23:36:16.178Z,6.60
2023-04-07T23:38:44.207Z,6.60
2023-04-07T23:41:12.743Z,6.60
2023-04-07T23:43:41.207Z,6.60
2023-04-07T23:46:10.263Z,6.60
2023-04-07T23:48:38.290Z,6.60
2023-04-07T23:51:07.052Z,6.60
2023-04-07T23:53:35.625Z,6.60
2023-04-07T23:56:04.173Z,6.60
2023-04-07T23:58:32.383Z,6.60
